Time;durP1;ratioP1;P1;durP2;ratioP2;P2;SDS_P1;SDS_P2;PMS_P1;PMS_P2;Temp;Humidity;BMP_temperature;BMP_pressure;BME280_temperature;BME280_humidity;BME280_pressure;Samples;Min_cycle;Max_cycle;Signal;HPM_P1;HPM_P2
2022/01/18 00:00:03;;;;;;;19.15;5.20;;;;;;;10.29;61.67;103018.63;677384;29;1410;-83
2022/01/18 00:00:40;;;;;;;21.20;5.00;;;;;;;10.32;61.56;103024.03;679800;29;925;-84
2022/01/18 00:01:00;;;;;;;25.23;5.60;;;;;;;10.20;61.51;103008.44;679550;29;1124;-84
2022/01/18 00:01:21;;;;;;;21.80;5.63;;;;;;;10.21;61.70;103010.22;677175;29;1555;-85
2022/01/18 00:01:42;;;;;;;17.95;5.40;;;;;;;10.15;61.47;103013.34;682552;29;1129;-85
2022/01/18 00:02:03;;;;;;;17.55;5.05;;;;;;;10.10;61.76;103009.56;680980;29;1072;-84
2022/01/18 00:02:23;;;;;;;22.60;5.20;;;;;;;10.24;62.01;103020.00;679771;29;2128;-84
2022/01/18 00:02:45;;;;;;;24.27;5.67;;;;;;;10.21;61.86;103018.06;682436;29;1294;-83
2022/01/18 00:03:06;;;;;;;23.85;6.15;;;;;;;10.26;61.62;103014.09;681545;29;1093;-84
2022/01/18 00:03:26;;;;;;;18.00;5.32;;;;;;;10.24;61.71;103012.19;679794;29;1286;-84
2022/01/18 00:03:57;;;;;;;16.27;4.93;;;;;;;10.27;61.61;103018.50;677042;29;1729;-84
2022/01/18 00:04:18;;;;;;;16.23;5.13;;;;;;;10.17;61.49;103004.72;677768;29;1223;-84
2022/01/18 00:04:38;;;;;;;17.35;5.20;;;;;;;10.21;61.75;103015.44;682537;29;1447;-84
2022/01/18 00:04:59;;;;;;;17.02;5.22;;;;;;;10.20;61.50;103020.59;679485;29;1282;-84
2022/01/18 00:05:20;;;;;;;18.10;4.97;;;;;;;10.21;61.58;103017.19;677324;29;1128;-84
2022/01/18 00:05:43;;;;;;;17.77;5.10;;;;;;;10.24;61.32;103020.00;682508;29;1304;-83
2022/01/18 00:06:04;;;;;;;21.20;5.13;;;;;;;10.17;61.69;103020.38;684676;28;1196;-84
2022/01/18 00:06:25;;;;;;;23.13;5.50;;;;;;;10.21;61.71;103020.66;679834;28;1367;-84
2022/01/18 00:06:50;;;;;;;22.58;5.57;;;;;;;10.17;61.92;103010.84;674733;29;1786;-84
2022/01/18 00:07:10;;;;;;;19.48;5.60;;;;;;;10.17;61.72;103013.47;673370;29;1036;-84
2022/01/18 00:07:31;;;;;;;17.80;5.70;;;;;;;10.20;61.44;103012.75;678749;29;1695;-84
2022/01/18 00:07:51;;;;;;;18.30;5.78;;;;;;;10.22;61.63;103003.31;679999;29;858;-85
2022/01/18 00:08:14;;;;;;;18.17;5.67;;;;;;;10.20;61.35;103010.16;677320;29;1144;-85
2022/01/18 00:08:34;;;;;;;15.68;5.07;;;;;;;10.15;61.52;103012.47;674621;29;1203;-84
2022/01/18 00:08:55;;;;;;;15.70;4.67;;;;;;;10.11;61.69;103007.84;677879;29;1205;-84
2022/01/18 00:09:20;;;;;;;17.42;4.93;;;;;;;10.12;61.65;103015.78;679384;29;1786;-84
2022/01/18 00:09:41;;;;;;;17.42;5.20;;;;;;;10.19;61.68;103010.97;676420;29;1361;-84
2022/01/18 00:10:02;;;;;;;17.85;5.50;;;;;;;10.19;61.72;103022.28;683800;28;1378;-84
2022/01/18 00:10:25;;;;;;;19.85;5.70;;;;;;;10.21;61.57;103014.56;679429;29;1881;-84
2022/01/18 00:10:47;;;;;;;21.27;5.93;;;;;;;10.24;61.61;103028.75;679309;29;1324;-85
2022/01/18 00:11:08;;;;;;;19.75;5.70;;;;;;;10.15;61.57;103013.34;681633;28;1945;-84
2022/01/18 00:11:34;;;;;;;18.38;5.40;;;;;;;10.13;61.79;103014.03;680927;29;1659;-84
2022/01/18 00:12:27;;;;;;;19.25;5.20;;;;;;;10.17;61.44;103023.91;680363;29;1148;-85
2022/01/18 00:13:43;;;;;;;19.75;5.90;;;;;;;10.20;61.63;103024.09;679816;29;1126;-86
2022/01/18 00:14:12;;;;;;;19.40;5.90;;;;;;;10.21;61.24;103011.97;678582;29;1141;-85
2022/01/18 00:14:45;;;;;;;22.67;5.78;;;;;;;10.26;61.45;103023.66;674630;29;757;-84
2022/01/18 00:15:56;;;;;;;19.33;5.75;;;;;;;10.31;61.29;103039.59;679821;29;1182;-84
2022/01/18 00:16:38;;;;;;;14.88;5.47;;;;;;;10.23;61.12;103033.88;679870;29;904;-84
2022/01/18 00:17:16;;;;;;;13.90;5.32;;;;;;;10.26;61.37;103040.19;675698;29;2134;-84
2022/01/18 00:17:42;;;;;;;19.60;5.70;;;;;;;10.28;61.22;103040.31;682415;28;895;-85
2022/01/18 00:18:24;;;;;;;25.38;6.45;;;;;;;10.25;61.24;103032.25;677389;29;840;-84
2022/01/18 00:18:49;;;;;;;22.20;6.33;;;;;;;10.26;61.02;103034.09;677315;29;1042;-84
2022/01/18 00:19:11;;;;;;;22.85;5.80;;;;;;;10.31;61.17;103043.09;682307;29;1251;-84
2022/01/18 00:19:34;;;;;;;18.73;5.50;;;;;;;10.42;60.83;103041.19;682004;29;1384;-84
2022/01/18 00:19:56;;;;;;;15.15;5.30;;;;;;;10.52;60.65;103042.72;680102;29;1360;-84
2022/01/18 00:20:22;;;;;;;14.23;5.30;;;;;;;10.62;60.59;103045.09;674628;29;1288;-84
2022/01/18 00:21:49;;;;;;;19.38;5.57;;;;;;;10.64;60.24;103047.81;682557;28;1249;-84
2022/01/18 00:22:12;;;;;;;12.40;5.00;;;;;;;10.47;60.41;103041.50;683784;28;1560;-85
2022/01/18 00:22:33;;;;;;;14.70;4.72;;;;;;;10.41;60.45;103040.31;677267;29;1385;-84
2022/01/18 00:22:53;;;;;;;18.70;4.60;;;;;;;10.40;60.56;103041.09;680008;29;1260;-84
2022/01/18 00:23:14;;;;;;;20.00;4.70;;;;;;;10.49;60.62;103059.06;682518;29;961;-84
2022/01/18 00:23:36;;;;;;;19.60;4.90;;;;;;;10.46;60.84;103055.34;679954;28;1247;-84
2022/01/18 00:23:58;;;;;;;14.73;4.80;;;;;;;10.31;60.72;103039.59;677917;29;1257;-84
2022/01/18 00:24:19;;;;;;;18.63;5.10;;;;;;;10.35;60.93;103050.34;679892;29;1006;-84
2022/01/18 00:24:41;;;;;;;17.02;4.90;;;;;;;10.31;60.84;103037.88;677357;29;835;-84
2022/01/18 00:25:02;;;;;;;19.38;5.00;;;;;;;10.36;60.96;103044.31;678458;29;1165;-84
2022/01/18 00:25:23;;;;;;;15.75;4.53;;;;;;;10.26;61.03;103034.97;679173;29;847;-85
2022/01/18 00:25:48;;;;;;;16.83;4.57;;;;;;;10.27;61.20;103048.94;682529;29;1161;-84
2022/01/18 00:26:10;;;;;;;20.33;5.18;;;;;;;10.30;61.12;103040.41;680062;29;1427;-84
2022/01/18 00:26:32;;;;;;;21.27;5.05;;;;;;;10.28;60.96;103035.09;677169;29;2052;-84
2022/01/18 00:26:53;;;;;;;20.73;5.20;;;;;;;10.34;61.18;103043.31;679806;29;1234;-84
2022/01/18 00:27:16;;;;;;;16.33;4.80;;;;;;;10.29;60.81;103039.50;679782;29;1431;-84
2022/01/18 00:27:36;;;;;;;18.10;5.18;;;;;;;10.35;60.86;103038.97;679914;29;800;-84
2022/01/18 00:27:58;;;;;;;21.40;5.80;;;;;;;10.50;60.54;103039.09;679849;28;1207;-84
2022/01/18 00:28:19;;;;;;;21.83;6.25;;;;;;;10.54;60.48;103038.47;679797;29;1333;-84
2022/01/18 00:28:41;;;;;;;19.50;5.75;;;;;;;10.62;60.25;103045.09;678593;29;1207;-84
2022/01/18 00:29:08;;;;;;;16.38;5.18;;;;;;;10.62;60.21;103039.88;674480;29;1345;-84
2022/01/18 00:29:30;;;;;;;17.70;5.57;;;;;;;10.69;59.76;103044.69;679048;29;1858;-85
2022/01/18 00:30:04;;;;;;;15.40;5.70;;;;;;;10.62;59.74;103031.16;677086;29;1118;-84
2022/01/18 00:31:01;;;;;;;16.30;5.60;;;;;;;10.73;60.11;103050.09;679769;29;1246;-84
2022/01/18 00:32:36;;;;;;;18.55;5.15;;;;;;;10.79;59.60;103048.81;682420;29;1068;-84
2022/01/18 00:33:12;;;;;;;18.45;4.90;;;;;;;10.74;59.56;103033.66;683588;28;1476;-84
2022/01/18 00:34:12;;;;;;;13.80;4.03;;;;;;;10.70;59.74;103043.00;684588;28;1885;-84
2022/01/18 00:34:36;;;;;;;15.98;4.47;;;;;;;10.74;59.57;103038.88;682530;28;2084;-84
2022/01/18 00:34:57;;;;;;;16.52;4.70;;;;;;;10.72;59.40;103036.16;679760;29;1101;-84
2022/01/18 00:35:17;;;;;;;16.40;4.40;;;;;;;10.79;59.46;103043.56;682436;29;1120;-84
2022/01/18 00:35:41;;;;;;;18.55;4.50;;;;;;;10.79;59.31;103048.81;679775;29;1653;-84
2022/01/18 00:36:03;;;;;;;16.00;4.10;;;;;;;10.72;59.43;103040.47;686106;28;1468;-84
2022/01/18 00:36:28;;;;;;;16.05;4.20;;;;;;;10.64;59.67;103034.75;684954;28;1624;-85
2022/01/18 00:36:57;;;;;;;17.98;5.05;;;;;;;10.68;59.62;103041.97;687733;28;1454;-84
2022/01/18 00:37:33;;;;;;;18.92;5.22;;;;;;;10.67;59.80;103048.00;685201;28;969;-84
2022/01/18 00:37:56;;;;;;;19.08;4.68;;;;;;;10.64;59.83;103040.88;677378;29;1903;-84
2022/01/18 00:38:43;;;;;;;17.25;4.80;;;;;;;10.67;59.90;103038.47;685036;28;1099;-84
2022/01/18 00:39:07;;;;;;;13.38;4.45;;;;;;;10.66;59.76;103031.44;684869;28;1087;-84
2022/01/18 00:39:27;;;;;;;14.25;4.32;;;;;;;10.67;59.90;103028.03;682105;29;1331;-84
2022/01/18 00:39:48;;;;;;;18.40;4.85;;;;;;;10.73;59.51;103031.81;674177;29;1189;-84
2022/01/18 00:40:09;;;;;;;18.87;4.60;;;;;;;10.86;59.44;103043.97;681856;28;1159;-84
2022/01/18 00:40:53;;;;;;;19.40;4.97;;;;;;;10.82;59.63;103048.09;682503;29;1199;-85
2022/01/18 00:41:17;;;;;;;17.42;4.63;;;;;;;10.66;59.68;103039.28;682323;29;1198;-84
2022/01/18 00:41:39;;;;;;;22.02;4.40;;;;;;;10.76;59.56;103047.69;678212;29;1180;-84
2022/01/18 00:41:59;;;;;;;17.90;4.38;;;;;;;10.69;59.72;103034.25;678068;29;1205;-84
2022/01/18 00:42:20;;;;;;;21.42;4.55;;;;;;;10.81;59.73;103051.50;674389;29;1161;-84
2022/01/18 00:42:40;;;;;;;19.52;4.63;;;;;;;10.75;59.50;103035.44;677173;29;757;-83
2022/01/18 00:43:01;;;;;;;21.80;4.60;;;;;;;10.77;59.49;103044.28;679851;29;2071;-84
2022/01/18 00:43:22;;;;;;;20.25;4.80;;;;;;;10.65;59.63;103040.09;679134;29;1528;-84
2022/01/18 00:43:43;;;;;;;20.00;4.90;;;;;;;10.65;59.69;103050.53;679736;29;1132;-84
2022/01/18 00:44:05;;;;;;;18.67;4.65;;;;;;;10.72;59.80;103040.47;681085;29;1322;-84
2022/01/18 00:44:26;;;;;;;18.05;4.28;;;;;;;10.79;59.62;103043.56;685313;28;1578;-84
2022/01/18 00:44:47;;;;;;;16.42;4.30;;;;;;;10.89;59.45;103054.59;682425;28;1307;-84
2022/01/18 00:45:07;;;;;;;15.70;4.60;;;;;;;10.92;59.11;103058.31;677044;29;1401;-84
2022/01/18 00:45:28;;;;;;;17.20;4.93;;;;;;;10.90;59.32;103052.09;673976;29;1266;-84
2022/01/18 00:45:49;;;;;;;17.80;4.63;;;;;;;10.88;59.01;103040.63;681871;28;1220;-84
2022/01/18 00:46:12;;;;;;;19.45;4.90;;;;;;;11.01;58.91;103062.31;682114;29;1641;-84
2022/01/18 00:46:32;;;;;;;14.68;4.32;;;;;;;10.95;58.96;103052.38;681245;29;1127;-84
2022/01/18 00:46:53;;;;;;;18.70;4.63;;;;;;;11.00;59.00;103066.63;679265;28;1584;-84
2022/01/18 00:47:14;;;;;;;16.03;4.03;;;;;;;10.97;58.83;103063.84;679711;29;1167;-86
2022/01/18 00:47:34;;;;;;;18.13;4.30;;;;;;;10.96;58.93;103060.31;682418;29;1481;-83
2022/01/18 00:47:56;;;;;;;14.32;3.97;;;;;;;10.88;58.84;103058.91;679548;28;1230;-83
2022/01/18 00:48:17;;;;;;;14.57;4.03;;;;;;;10.85;58.99;103058.72;676800;29;1601;-84
2022/01/18 00:48:39;;;;;;;10.93;3.80;;;;;;;10.87;58.94;103061.44;679728;29;1348;-84
2022/01/18 00:49:01;;;;;;;9.50;3.72;;;;;;;10.89;59.06;103060.75;683194;28;1127;-84
2022/01/18 00:49:22;;;;;;;8.88;3.50;;;;;;;10.83;58.81;103045.56;679978;29;764;-84
2022/01/18 00:49:46;;;;;;;14.80;3.85;;;;;;;10.88;58.89;103064.13;680417;28;1115;-84
2022/01/18 00:50:08;;;;;;;17.60;3.92;;;;;;;10.97;58.80;103056.00;682669;28;1313;-84
2022/01/18 00:50:31;;;;;;;16.95;4.03;;;;;;;10.89;58.80;103060.75;685214;28;838;-84
2022/01/18 00:50:53;;;;;;;12.77;4.05;;;;;;;10.90;58.98;103052.09;682447;29;1512;-84
2022/01/18 00:51:14;;;;;;;16.95;4.60;;;;;;;10.90;58.89;103056.41;674837;29;1299;-84
2022/01/18 00:51:38;;;;;;;15.80;4.63;;;;;;;10.90;58.43;103057.31;679856;29;979;-84
2022/01/18 00:52:04;;;;;;;16.38;4.75;;;;;;;10.95;58.72;103066.34;681425;29;1586;-84
2022/01/18 00:52:26;;;;;;;16.58;4.90;;;;;;;10.83;58.82;103056.00;682421;29;1878;-84
2022/01/18 00:52:50;;;;;;;17.33;4.47;;;;;;;10.84;58.92;103051.69;684990;28;1341;-84
2022/01/18 00:53:15;;;;;;;15.55;4.32;;;;;;;10.88;58.97;103058.03;679894;29;1107;-83
2022/01/18 00:53:37;;;;;;;17.45;4.40;;;;;;;10.80;58.84;103049.69;679724;29;1390;-84
2022/01/18 00:53:59;;;;;;;17.85;4.03;;;;;;;10.82;58.69;103055.94;679400;29;1498;-83
2022/01/18 00:54:24;;;;;;;15.48;3.83;;;;;;;10.89;58.81;103060.75;677064;29;1224;-84
2022/01/18 00:54:46;;;;;;;15.77;4.43;;;;;;;10.90;58.90;103057.31;682321;28;1353;-84
2022/01/18 00:55:07;;;;;;;13.15;4.22;;;;;;;10.94;58.92;103061.03;684171;28;1314;-84
2022/01/18 00:55:34;;;;;;;10.93;3.95;;;;;;;10.85;59.05;103049.97;681070;29;1888;-83
2022/01/18 00:56:16;;;;;;;10.02;3.75;;;;;;;10.88;58.89;103053.69;682810;28;1216;-84
2022/01/18 00:56:42;;;;;;;15.75;5.18;;;;;;;10.79;58.96;103054.03;684998;28;840;-84
2022/01/18 00:57:03;;;;;;;20.20;5.30;;;;;;;10.92;58.65;103065.25;679220;29;1567;-84
2022/01/18 00:57:24;;;;;;;18.27;4.60;;;;;;;10.87;59.09;103062.34;682476;29;1439;-84
2022/01/18 00:57:45;;;;;;;18.45;4.80;;;;;;;10.81;59.16;103065.47;679805;29;1028;-84
2022/01/18 00:58:05;;;;;;;17.30;4.47;;;;;;;10.68;59.25;103055.03;679579;29;1903;-84
2022/01/18 00:58:25;;;;;;;18.85;4.80;;;;;;;10.66;59.76;103068.00;674582;29;1172;-84
2022/01/18 00:58:48;;;;;;;17.90;4.70;;;;;;;10.54;59.49;103048.91;679143;29;1290;-84
2022/01/18 00:59:08;;;;;;;14.88;4.40;;;;;;;10.52;59.71;103054.03;681853;29;1741;-84
2022/01/18 00:59:29;;;;;;;16.80;4.70;;;;;;;10.45;60.03;103056.16;681738;29;1644;-84
2022/01/18 00:59:49;;;;;;;19.33;4.70;;;;;;;10.47;59.65;103055.47;679130;29;1153;-84
2022/01/18 01:00:11;;;;;;;19.03;4.70;;;;;;;10.44;59.80;103054.34;679536;29;1190;-84
2022/01/18 01:00:31;;;;;;;15.40;3.97;;;;;;;10.41;60.20;103055.97;679848;29;1479;-84
2022/01/18 01:00:52;;;;;;;11.87;3.97;;;;;;;10.29;60.35;103060.38;681855;29;1170;-84
2022/01/18 01:01:59;;;;;;;13.57;4.40;;;;;;;10.47;60.20;103072.81;681813;29;1432;-84
2022/01/18 01:02:20;;;;;;;19.05;4.45;;;;;;;10.40;60.47;103075.03;684276;28;1519;-84
2022/01/18 01:02:40;;;;;;;21.30;4.63;;;;;;;10.41;59.95;103069.03;685161;28;1099;-84
2022/01/18 01:03:06;;;;;;;15.65;4.63;;;;;;;10.27;60.47;103062.00;685096;28;1108;-84
2022/01/18 01:03:27;;;;;;;12.00;4.40;;;;;;;10.28;60.68;103059.47;677121;29;1747;-84
2022/01/18 01:03:48;;;;;;;15.30;4.60;;;;;;;10.21;60.67;103071.97;681058;29;1726;-84
2022/01/18 01:04:09;;;;;;;17.92;4.75;;;;;;;10.20;60.35;103059.75;682314;29;1298;-84
2022/01/18 01:04:34;;;;;;;18.98;4.93;;;;;;;10.15;60.82;103060.31;682241;29;1583;-84
2022/01/18 01:04:54;;;;;;;16.50;4.53;;;;;;;10.21;60.58;103061.53;682514;29;1052;-84
2022/01/18 01:05:15;;;;;;;13.80;4.20;;;;;;;10.29;60.48;103076.03;682487;29;1134;-84
2022/01/18 01:05:36;;;;;;;11.23;3.87;;;;;;;10.40;60.51;103069.81;685166;28;1340;-84
2022/01/18 01:05:56;;;;;;;13.05;4.10;;;;;;;10.34;60.47;103063.28;685373;28;1294;-84
2022/01/18 01:06:17;;;;;;;12.60;4.27;;;;;;;10.38;60.47;103074.03;682399;29;1076;-84
2022/01/18 01:06:38;;;;;;;11.68;4.20;;;;;;;10.32;60.66;103073.63;679774;28;1346;-84
2022/01/18 01:06:58;;;;;;;9.77;3.90;;;;;;;10.32;60.37;103071.00;686555;28;1943;-84
2022/01/18 01:07:22;;;;;;;15.57;4.38;;;;;;;10.31;60.36;103061.38;682432;29;1179;-84
2022/01/18 01:07:43;;;;;;;15.95;4.68;;;;;;;10.29;60.41;103065.59;679356;29;1096;-84
2022/01/18 01:08:03;;;;;;;17.27;5.00;;;;;;;10.34;60.15;103063.28;681531;29;1249;-84
2022/01/18 01:08:24;;;;;;;16.35;5.22;;;;;;;10.40;60.19;103077.63;674669;29;1046;-84
2022/01/18 01:08:45;;;;;;;19.70;5.20;;;;;;;10.40;60.47;103075.03;677199;29;1323;-84
2022/01/18 01:09:06;;;;;;;16.00;4.70;;;;;;;10.32;60.21;103067.50;679499;29;1519;-84
2022/01/18 01:09:28;;;;;;;17.27;4.43;;;;;;;10.34;60.24;103063.28;679514;29;1501;-84
2022/01/18 01:09:49;;;;;;;18.85;4.72;;;;;;;10.31;60.28;103063.09;682142;29;942;-84
2022/01/18 01:10:10;;;;;;;18.35;5.18;;;;;;;10.33;60.50;103064.09;681927;28;1374;-84
2022/01/18 01:10:30;;;;;;;13.57;4.57;;;;;;;10.33;60.40;103066.69;685074;28;1182;-84
2022/01/18 01:10:51;;;;;;;16.17;4.33;;;;;;;10.34;60.50;103077.25;681101;29;748;-84
2022/01/18 01:11:12;;;;;;;20.48;4.45;;;;;;;10.35;60.52;103075.53;682122;29;1304;-85
2022/01/18 01:11:37;;;;;;;18.85;4.43;;;;;;;10.28;60.46;103055.97;674626;29;1599;-84
2022/01/18 01:11:58;;;;;;;17.13;4.40;;;;;;;10.29;60.61;103062.97;681513;29;1212;-84
2022/01/18 01:12:23;;;;;;;16.95;4.38;;;;;;;10.43;60.19;103081.28;679762;29;1179;-84
2022/01/18 01:12:43;;;;;;;21.98;5.10;;;;;;;10.43;60.49;103076.94;682331;29;1214;-84
2022/01/18 01:13:04;;;;;;;23.13;5.28;;;;;;;10.37;60.14;103069.63;676865;29;1352;-84
2022/01/18 01:13:27;;;;;;;21.50;5.53;;;;;;;10.44;60.20;103077.84;677262;29;804;-84
2022/01/18 01:13:50;;;;;;;17.90;4.78;;;;;;;10.43;60.37;103078.66;677289;29;804;-84
2022/01/18 01:14:17;;;;;;;15.57;3.70;;;;;;;10.35;60.30;103068.63;677096;29;1163;-84
2022/01/18 01:14:39;;;;;;;14.93;3.88;;;;;;;10.45;60.37;103083.16;678351;29;1709;-84
2022/01/18 01:15:08;;;;;;;15.43;4.10;;;;;;;10.38;60.12;103066.19;681611;29;1166;-84
2022/01/18 01:15:31;;;;;;;14.77;4.30;;;;;;;10.34;60.42;103064.19;682364;29;1130;-84
2022/01/18 01:17:48;;;;;;;17.80;3.90;;;;;;;10.37;60.36;103068.69;679905;29;1078;-84
2022/01/18 01:32:12;;;;;;;16.67;4.32;;;;;;;10.30;60.56;103077.84;674018;29;1223;-83
2022/01/18 01:33:03;;;;;;;17.00;5.18;;;;;;;10.03;61.23;103071.66;684853;28;1091;-84
2022/01/18 01:34:15;;;;;;;15.32;4.60;;;;;;;10.03;61.22;103069.94;677085;29;1304;-87
2022/01/18 01:34:43;;;;;;;19.45;4.50;;;;;;;10.03;61.19;103072.56;679284;29;1568;-87
2022/01/18 01:35:41;;;;;;;13.55;4.80;;;;;;;10.07;61.46;103087.59;678619;29;792;-85
2022/01/18 01:36:14;;;;;;;16.98;5.60;;;;;;;10.02;61.31;103075.97;672942;29;1256;-85
2022/01/18 01:41:48;;;;;;;17.38;5.05;;;;;;;9.82;62.58;103083.34;684629;28;1510;-85
2022/01/18 01:42:34;;;;;;;17.67;4.25;;;;;;;9.81;62.40;103091.97;681233;29;1221;-85
2022/01/18 01:43:09;;;;;;;17.70;4.25;;;;;;;9.92;62.51;103094.38;681584;28;2045;-85
2022/01/18 01:43:38;;;;;;;18.92;4.10;;;;;;;9.96;62.21;103096.44;679805;29;894;-85
2022/01/18 01:44:44;;;;;;;16.40;4.28;;;;;;;9.96;62.49;103092.09;677098;29;1731;-84
2022/01/18 01:45:06;;;;;;;19.65;4.80;;;;;;;9.99;62.20;103099.22;682203;28;1264;-84
2022/01/18 01:45:28;;;;;;;24.52;4.90;;;;;;;9.91;62.02;103088.28;682384;29;1130;-84
2022/01/18 01:45:51;;;;;;;21.95;4.50;;;;;;;9.96;62.25;103091.22;684930;28;1304;-85
2022/01/18 01:46:12;;;;;;;17.80;3.83;;;;;;;10.00;62.09;103095.81;682033;28;1240;-84
2022/01/18 01:46:51;;;;;;;13.43;3.85;;;;;;;10.05;62.16;103098.72;684574;28;1338;-85
2022/01/18 01:47:35;;;;;;;21.83;4.20;;;;;;;10.01;62.27;103100.22;682569;29;691;-84
2022/01/18 01:47:59;;;;;;;25.13;4.38;;;;;;;10.06;62.27;103109.28;682237;28;1774;-84
2022/01/18 01:48:22;;;;;;;19.30;4.03;;;;;;;10.03;62.38;103103.88;684970;28;1194;-84
2022/01/18 01:48:45;;;;;;;14.35;4.32;;;;;;;9.96;62.36;103086.88;686873;28;1782;-85
2022/01/18 01:49:12;;;;;;;17.65;4.63;;;;;;;10.04;61.94;103095.25;680850;29;1749;-83
2022/01/18 01:49:32;;;;;;;22.02;4.50;;;;;;;10.04;62.19;103100.47;679499;29;848;-84
2022/01/18 01:49:53;;;;;;;23.08;4.28;;;;;;;10.03;62.02;103089.91;682021;28;1301;-84
2022/01/18 01:50:19;;;;;;;21.83;4.40;;;;;;;10.01;62.25;103088.09;684840;28;1757;-83
2022/01/18 01:50:47;;;;;;;16.33;4.78;;;;;;;10.06;61.84;103097.97;682307;29;1201;-85
2022/01/18 01:51:08;;;;;;;15.75;4.72;;;;;;;10.06;62.32;103106.69;677364;29;1270;-85
2022/01/18 01:51:30;;;;;;;15.77;4.53;;;;;;;9.91;62.18;103085.69;679930;29;1296;-85
2022/01/18 01:51:51;;;;;;;15.38;4.43;;;;;;;9.95;62.48;103087.69;679680;29;863;-84
2022/01/18 01:52:11;;;;;;;15.70;4.75;;;;;;;10.02;62.51;103107.28;679681;29;1137;-85
2022/01/18 01:52:32;;;;;;;15.07;4.73;;;;;;;9.96;62.11;103104.25;679722;29;1182;-85
2022/01/18 01:52:56;;;;;;;16.80;4.63;;;;;;;9.98;62.21;103094.81;681534;29;1881;-85
2022/01/18 01:53:19;;;;;;;15.98;4.75;;;;;;;9.91;62.33;103088.28;682176;29;1736;-85
2022/01/18 01:53:40;;;;;;;17.38;4.80;;;;;;;9.95;62.32;103100.72;682443;29;791;-84
2022/01/18 01:54:04;;;;;;;14.33;4.77;;;;;;;9.96;62.22;103101.66;676888;29;1214;-85
2022/01/18 01:54:24;;;;;;;13.25;4.43;;;;;;;9.91;62.40;103093.50;676914;29;1761;-84
2022/01/18 01:54:45;;;;;;;14.57;4.55;;;;;;;9.98;62.50;103094.81;682482;28;838;-84
2022/01/18 01:55:07;;;;;;;20.50;4.93;;;;;;;9.95;62.39;103089.41;679603;29;1322;-84
2022/01/18 01:55:27;;;;;;;22.60;5.07;;;;;;;10.05;62.37;103097.03;679778;29;1273;-85
2022/01/18 01:55:49;;;;;;;23.27;5.28;;;;;;;10.17;61.82;103096.03;674713;29;1480;-85
2022/01/18 01:56:10;;;;;;;22.33;5.00;;;;;;;10.12;62.02;103081.00;672245;29;1387;-85
2022/01/18 01:56:31;;;;;;;21.02;4.85;;;;;;;10.20;61.91;103093.66;679609;29;1554;-84
2022/01/18 01:56:51;;;;;;;19.10;4.30;;;;;;;10.18;61.77;103083.13;684223;28;1180;-84
2022/01/18 01:57:12;;;;;;;18.97;4.57;;;;;;;10.19;61.49;103084.91;679676;29;1364;-84
2022/01/18 01:57:32;;;;;;;17.90;4.45;;;;;;;10.21;61.42;103077.19;674501;29;1198;-84
2022/01/18 01:57:53;;;;;;;17.30;4.80;;;;;;;10.22;61.50;103077.31;679441;29;1826;-84
2022/01/18 01:58:15;;;;;;;15.50;5.07;;;;;;;10.27;61.34;103088.97;677552;29;1931;-85
2022/01/18 01:58:35;;;;;;;17.10;4.90;;;;;;;10.23;61.46;103081.75;677637;29;1338;-84
2022/01/18 01:58:56;;;;;;;16.05;4.82;;;;;;;10.27;61.40;103095.91;672377;29;1122;-84
2022/01/18 01:59:17;;;;;;;14.88;4.47;;;;;;;10.21;61.55;103085.03;676707;29;1199;-85
2022/01/18 01:59:37;;;;;;;15.10;5.00;;;;;;;10.24;61.60;103083.56;679635;29;1261;-84
2022/01/18 01:59:59;;;;;;;14.95;4.50;;;;;;;10.31;61.52;103091.81;682416;29;1781;-84
2022/01/18 02:00:20;;;;;;;13.20;4.40;;;;;;;10.33;61.32;103095.41;682718;29;1752;-84
2022/01/18 02:00:53;;;;;;;11.02;4.05;;;;;;;10.17;61.53;103085.59;674891;29;1225;-85
2022/01/18 02:01:14;;;;;;;17.15;4.50;;;;;;;10.13;61.61;103077.59;679640;29;1088;-85
2022/01/18 02:01:47;;;;;;;20.35;4.50;;;;;;;10.13;61.70;103080.19;680321;29;875;-84
2022/01/18 02:02:08;;;;;;;20.23;4.53;;;;;;;10.19;61.75;103084.03;682080;29;1536;-85
2022/01/18 02:02:30;;;;;;;21.17;4.90;;;;;;;10.13;61.54;103080.19;687357;28;2055;-84
2022/01/18 02:02:53;;;;;;;21.23;4.30;;;;;;;10.11;61.76;103084.41;685370;28;1108;-85
2022/01/18 02:03:15;;;;;;;20.70;4.43;;;;;;;10.15;61.90;103078.59;682683;28;1288;-85
2022/01/18 02:03:35;;;;;;;17.88;4.53;;;;;;;10.12;61.81;103078.41;688200;28;1092;-84
2022/01/18 02:03:57;;;;;;;19.83;4.97;;;;;;;10.14;61.56;103082.00;685570;28;1057;-84
2022/01/18 02:04:18;;;;;;;23.05;4.70;;;;;;;10.12;61.97;103072.25;685410;28;1281;-85
2022/01/18 02:04:38;;;;;;;21.63;4.63;;;;;;;10.17;61.69;103075.16;679991;29;1744;-85
2022/01/18 02:05:00;;;;;;;19.27;4.50;;;;;;;10.15;61.80;103083.81;677416;29;1145;-85
2022/01/18 02:05:22;;;;;;;17.50;4.75;;;;;;;10.25;61.63;103089.66;683061;28;1311;-84
2022/01/18 02:05:43;;;;;;;18.25;4.40;;;;;;;10.22;61.74;103074.69;682902;29;1370;-85
2022/01/18 02:06:04;;;;;;;17.63;4.20;;;;;;;10.24;61.59;103077.41;681705;29;1174;-84
2022/01/18 02:06:25;;;;;;;15.98;4.30;;;;;;;10.20;61.72;103075.41;682719;28;1199;-85
2022/01/18 02:06:45;;;;;;;14.75;4.15;;;;;;;10.28;61.55;103076.84;682948;29;1191;-84
2022/01/18 02:07:06;;;;;;;16.93;4.90;;;;;;;10.27;61.74;103077.66;680203;29;1210;-84
2022/01/18 02:07:27;;;;;;;16.87;4.50;;;;;;;10.28;61.79;103079.44;680199;29;1154;-84
2022/01/18 02:07:48;;;;;;;15.52;5.20;;;;;;;10.29;61.56;103081.25;672473;29;1212;-84
2022/01/18 02:08:08;;;;;;;12.82;4.60;;;;;;;10.26;61.58;103081.06;675205;29;1568;-85
2022/01/18 02:08:29;;;;;;;12.82;4.45;;;;;;;10.23;61.74;103078.22;677698;29;1083;-85
2022/01/18 02:08:50;;;;;;;14.67;3.90;;;;;;;10.23;61.34;103075.63;677614;29;1192;-85
2022/01/18 02:09:12;;;;;;;13.32;3.90;;;;;;;10.25;61.57;103080.16;681396;29;1088;-84
2022/01/18 02:09:32;;;;;;;18.67;4.47;;;;;;;10.31;61.54;103094.41;679432;29;1350;-84
2022/01/18 02:09:53;;;;;;;19.95;4.75;;;;;;;10.25;61.38;103079.22;680207;28;1116;-85
2022/01/18 02:10:13;;;;;;;18.90;4.60;;;;;;;10.24;61.47;103072.19;685513;28;984;-85
2022/01/18 02:10:35;;;;;;;14.00;3.93;;;;;;;10.21;61.42;103071.97;680778;28;1098;-83
2022/01/18 02:10:56;;;;;;;16.75;4.03;;;;;;;10.25;61.67;103076.63;682705;29;1216;-84
2022/01/18 02:11:16;;;;;;;20.08;4.35;;;;;;;10.19;61.31;103066.66;685302;28;1501;-84
2022/01/18 02:11:37;;;;;;;20.13;4.60;;;;;;;10.21;61.69;103071.97;682653;29;1704;-85
2022/01/18 02:11:59;;;;;;;16.77;4.57;;;;;;;10.26;61.62;103075.84;680043;29;1127;-85
2022/01/18 02:12:20;;;;;;;14.63;4.38;;;;;;;10.26;61.38;103081.06;679937;29;1579;-84
2022/01/18 02:12:41;;;;;;;15.87;3.90;;;;;;;10.15;61.52;103065.53;680456;29;1123;-84
2022/01/18 02:13:03;;;;;;;21.25;3.80;;;;;;;10.12;61.65;103075.78;685189;28;1268;-84
2022/01/18 02:13:24;;;;;;;21.52;3.86;;;;;;;10.14;61.66;103089.81;685417;28;1247;-85
2022/01/18 02:13:53;;;;;;;17.70;4.17;;;;;;;10.19;61.81;103084.03;677681;29;1024;-84
2022/01/18 02:14:19;;;;;;;16.10;4.50;;;;;;;10.17;61.81;103067.34;682658;29;1740;-85
2022/01/18 02:14:40;;;;;;;15.85;4.20;;;;;;;10.24;61.82;103094.00;685545;28;833;-84
2022/01/18 02:15:10;;;;;;;16.30;4.20;;;;;;;10.15;61.59;103078.59;682512;29;1148;-84
2022/01/18 02:15:32;;;;;;;18.75;4.43;;;;;;;10.12;61.65;103075.78;685441;28;1249;-85
2022/01/18 02:21:52;;;;;;;16.77;4.03;;;;;;;10.22;61.85;103064.25;679283;29;1794;-84
2022/01/18 02:22:20;;;;;;;18.17;4.50;;;;;;;10.15;62.03;103060.31;681732;29;851;-85
2022/01/18 02:22:41;;;;;;;14.60;4.38;;;;;;;10.17;61.87;103059.50;678231;28;1233;-85
2022/01/18 02:23:01;;;;;;;18.05;4.38;;;;;;;10.23;61.93;103073.00;677493;29;1097;-84
2022/01/18 02:23:23;;;;;;;16.73;4.10;;;;;;;10.13;61.66;103054.09;677470;29;1167;-85
2022/01/18 02:23:59;;;;;;;14.30;3.83;;;;;;;10.24;61.74;103067.00;680556;29;1558;-85
2022/01/18 02:24:22;;;;;;;11.20;3.47;;;;;;;10.13;61.87;103054.09;685335;28;1133;-84
2022/01/18 02:24:42;;;;;;;14.10;4.35;;;;;;;10.13;61.75;103058.41;677637;29;781;-85
2022/01/18 02:25:03;;;;;;;14.63;4.55;;;;;;;10.14;61.79;103061.13;680959;29;1219;-85